Ascanius — V7FS9 — position and weather

sailwx.info

Track history (hours):
 
Tides and Currents Weather Stations Pressure Air Temp Water Temp Dewpoint Dewpoint Depression Visibility Wind Speed Wind Dir Waves Ship Positions

Ascanius

Last reported at 2017-Sep-14 15:12 UTC. Time now 2017-Nov-20 21:27 UTC.
Position N 01°15' E 103°24'.
Warning: this ship's position is months out of date.

Length 225 m; draft 12.1 m.

Type: Cargo ship. MMSI: 538002012.

Date/timePositionNaut miles runAvg speedWind from/ knotsBaromVisibWave heightAir tempDewpointWater temp
2017-Sep-14 15:12N 01°15' E 103°24'513.1
2017-Sep-14 14:52N 01°13' E 103°28'512.0
2017-Sep-14 14:27N 01°12' E 103°33'511.3
2017-Sep-14 14:01N 01°11' E 103°38'610.5
2017-Sep-14 13:27N 01°09' E 103°43'4 8.6
2017-Sep-14 12:57N 01°10' E 103°48'5 8.7
2017-Sep-14 12:21N 01°12' E 103°52'3 9.0
2017-Sep-14 12:01N 01°14' E 103°55'5 0.3
2017-Sep-13 22:05N 01°17' E 103°58'0 0.4
2017-Sep-13 21:35N 01°17' E 103°58'0 3.0
2017-Sep-13 21:27N 01°17' E 103°59'1 2.4
2017-Sep-13 20:56N 01°16' E 103°59'  
2017-Sep-07 17:23N 22°23' E 113°47'912.0
2017-Sep-07 16:39N 22°31' E 113°44'211.2
2017-Sep-07 16:26N 22°34' E 113°43'511.3
2017-Sep-07 16:00N 22°38' E 113°42'510.6
2017-Sep-07 15:30N 22°43' E 113°40'510.2
2017-Sep-07 15:00N 22°48' E 113°37'5 9.6
2017-Sep-07 14:30N 22°52' E 113°34'4 8.5
2017-Sep-07 14:00N 22°56' E 113°33'5 9.9
2017-Sep-07 13:30N 23°00' E 113°31'3 5.9
2017-Sep-07 12:59N 23°03' E 113°30'0 0.1
2017-Sep-07 12:31N 23°03' E 113°30'0 0.1
2017-Sep-07 12:00N 23°03' E 113°30'0 0.0
2017-Sep-07 11:30N 23°03' E 113°30'0 0.0
2017-Sep-07 11:00N 23°03' E 113°30'0 0.0
2017-Sep-07 10:31N 23°03' E 113°30'0 0.0
2017-Sep-07 09:57N 23°03' E 113°30'0 0.0
2017-Sep-07 09:31N 23°03' E 113°30'0 0.0
2017-Sep-07 09:00N 23°03' E 113°30'0 0.0
2017-Sep-07 08:31N 23°03' E 113°30'0 0.0
2017-Sep-07 08:01N 23°03' E 113°30'0 0.0
2017-Sep-07 07:31N 23°03' E 113°30'0 0.0
2017-Sep-07 07:00N 23°03' E 113°30'0 0.0
2017-Sep-07 06:30N 23°03' E 113°30'0 0.0
2017-Sep-07 06:01N 23°03' E 113°30'0 0.0
2017-Sep-07 05:31N 23°03' E 113°30'0 0.0
2017-Sep-07 05:01N 23°03' E 113°30'0 0.0
2017-Sep-07 04:31N 23°03' E 113°30'0 0.1
2017-Sep-07 04:01N 23°03' E 113°30'0 0.1
2017-Sep-07 03:30N 23°03' E 113°30'0 0.0
2017-Sep-07 03:00N 23°03' E 113°30'0 0.0
2017-Sep-07 02:31N 23°03' E 113°30'0 0.0
2017-Sep-07 02:01N 23°03' E 113°30'0 0.0
2017-Sep-07 01:30N 23°03' E 113°30'0 0.0
2017-Sep-07 01:00N 23°03' E 113°30'0 0.0
2017-Sep-07 00:31N 23°03' E 113°30'0 0.0
2017-Sep-07 00:01N 23°03' E 113°30'0 0.0
2017-Sep-06 23:30N 23°03' E 113°30'0 0.0
2017-Sep-06 23:00N 23°03' E 113°30'0 0.0
2017-Sep-06 22:30N 23°03' E 113°30'0 0.0
2017-Sep-06 22:00N 23°03' E 113°30'0 0.0
2017-Sep-06 21:31N 23°03' E 113°30'0 0.1
2017-Sep-06 21:01N 23°03' E 113°30'0 0.1
2017-Sep-06 20:31N 23°03' E 113°30'0 0.0
2017-Sep-06 20:01N 23°03' E 113°30'0 0.0
2017-Sep-06 19:31N 23°03' E 113°30'0 0.0
2017-Sep-06 19:01N 23°03' E 113°30'0 0.0
2017-Sep-06 18:31N 23°03' E 113°30'0 0.0
2017-Sep-06 18:01N 23°03' E 113°30'0 0.0
2017-Sep-06 17:31N 23°03' E 113°30'0 0.0
2017-Sep-06 17:01N 23°03' E 113°30'0 0.1
2017-Sep-06 16:30N 23°03' E 113°30'0 0.1
2017-Sep-06 16:01N 23°03' E 113°30'0 0.1
2017-Sep-06 15:30N 23°03' E 113°30'0 0.1
2017-Sep-06 15:00N 23°03' E 113°30'0 0.0
2017-Sep-06 14:30N 23°03' E 113°30'0 0.0
2017-Sep-06 14:01N 23°03' E 113°30'0 0.0
2017-Sep-06 13:30N 23°03' E 113°30'0 0.0
2017-Sep-06 13:01N 23°03' E 113°30'0 0.0
2017-Sep-06 12:30N 23°03' E 113°30'0 0.0
2017-Sep-06 12:00N 23°03' E 113°30'0 0.0
2017-Sep-06 11:31N 23°03' E 113°30'0 0.0
2017-Sep-06 11:01N 23°03' E 113°30'0 0.0
2017-Sep-06 10:31N 23°03' E 113°30'0 0.0
2017-Sep-06 10:01N 23°03' E 113°30'0 0.0
2017-Sep-06 09:30N 23°03' E 113°30'0 0.0
2017-Sep-06 09:01N 23°03' E 113°30'0 0.0
2017-Sep-06 08:30N 23°03' E 113°30'0 0.0
2017-Sep-06 08:00N 23°03' E 113°30'0 0.0
2017-Sep-06 07:30N 23°03' E 113°30'0 0.0
2017-Sep-06 07:01N 23°03' E 113°30'0 0.0
2017-Sep-06 06:30N 23°03' E 113°30'0 0.0
2017-Sep-06 06:00N 23°03' E 113°30'0 0.0
2017-Sep-06 05:31N 23°03' E 113°30'0 0.0
2017-Sep-06 05:00N 23°03' E 113°30'0 0.0
2017-Sep-06 04:30N 23°03' E 113°30'0 0.0
2017-Sep-06 04:00N 23°03' E 113°30'0 0.0
2017-Sep-06 03:30N 23°03' E 113°30'0 0.1
2017-Sep-06 03:00N 23°03' E 113°30'0 0.1
2017-Sep-06 02:31N 23°03' E 113°30'0 0.1
2017-Sep-06 02:01N 23°03' E 113°30'0 0.0
2017-Sep-06 01:30N 23°03' E 113°30'0 0.0
2017-Sep-06 01:01N 23°03' E 113°30'0 0.1
2017-Sep-06 00:30N 23°03' E 113°30'0 0.0
2017-Sep-06 00:00N 23°03' E 113°30'0 0.0
2017-Sep-05 23:31N 23°03' E 113°30'0 0.0
2017-Sep-05 23:00N 23°03' E 113°30'0 0.0
2017-Sep-05 22:30N 23°03' E 113°30'0 0.0
2017-Sep-05 22:00N 23°03' E 113°30'0 0.0
2017-Sep-05 21:30N 23°03' E 113°30'0 0.1
2017-Sep-05 21:00N 23°03' E 113°30'0 0.0
2017-Sep-05 20:31N 23°03' E 113°30'0 0.1
2017-Sep-05 20:01N 23°03' E 113°30'0 0.0
2017-Sep-05 19:30N 23°03' E 113°30'0 0.0
2017-Sep-05 19:01N 23°03' E 113°30'0 0.0
2017-Sep-05 18:30N 23°03' E 113°30'0 0.0
2017-Sep-05 18:00N 23°03' E 113°30'0 0.0
2017-Sep-05 17:30N 23°03' E 113°30'0 0.1
2017-Sep-05 17:01N 23°03' E 113°30'0 0.1
2017-Sep-05 16:31N 23°03' E 113°30'0 0.0
2017-Sep-05 16:01N 23°03' E 113°30'0 0.0
2017-Sep-05 15:31N 23°03' E 113°30'0 0.0
2017-Sep-05 15:00N 23°03' E 113°30'0 0.0
2017-Sep-05 14:31N 23°03' E 113°30'0 0.1
2017-Sep-05 14:01N 23°03' E 113°30'0 0.1
2017-Sep-05 13:30N 23°03' E 113°30'0 0.0
2017-Sep-05 13:01N 23°03' E 113°30'0 0.0
2017-Sep-05 12:30N 23°03' E 113°30'0 0.0
2017-Sep-05 12:00N 23°03' E 113°30'0 0.1
2017-Sep-05 11:30N 23°03' E 113°30'0 0.0
2017-Sep-05 11:00N 23°03' E 113°30'0 0.1
2017-Sep-05 10:30N 23°03' E 113°30'0 0.0
2017-Sep-05 10:01N 23°03' E 113°30'0 0.1
2017-Sep-05 09:30N 23°03' E 113°30'0 0.1
2017-Sep-05 09:00N 23°03' E 113°30'0 0.0
2017-Sep-05 08:30N 23°03' E 113°30'0 0.0
2017-Sep-05 08:01N 23°03' E 113°30'0 0.0
2017-Sep-05 07:30N 23°03' E 113°30'0 0.0
2017-Sep-05 07:01N 23°03' E 113°30'0 0.0
2017-Sep-05 06:31N 23°03' E 113°30'0 0.0
2017-Sep-05 06:01N 23°03' E 113°30'0 0.0
2017-Sep-05 05:31N 23°03' E 113°30'0 0.0
2017-Sep-05 05:00N 23°03' E 113°30'0 0.0
2017-Sep-05 04:30N 23°03' E 113°30'0 0.0
2017-Sep-05 04:01N 23°03' E 113°30'0 0.0
2017-Sep-05 03:31N 23°03' E 113°30'0 0.0
2017-Sep-05 03:01N 23°03' E 113°30'0 0.0
2017-Sep-05 02:30N 23°03' E 113°30'0 0.0
2017-Sep-05 02:00N 23°03' E 113°30'0 0.0
2017-Sep-05 01:30N 23°03' E 113°30'0 0.0
2017-Sep-05 01:00N 23°03' E 113°30'0 0.0
2017-Sep-05 00:30N 23°03' E 113°30'0 0.0
2017-Sep-05 00:01N 23°03' E 113°30'0 0.0
2017-Sep-04 23:31N 23°03' E 113°30'0 0.0
2017-Sep-04 23:00N 23°03' E 113°30'0 0.0
2017-Sep-04 22:30N 23°03' E 113°30'0 0.0
2017-Sep-04 22:01N 23°03' E 113°30'0 0.0
2017-Sep-04 21:31N 23°03' E 113°30'0 0.0
2017-Sep-04 21:01N 23°03' E 113°30'0 0.0
2017-Sep-04 20:31N 23°03' E 113°30'0 0.0
2017-Sep-04 20:01N 23°03' E 113°30'0 0.0
2017-Sep-04 19:31N 23°03' E 113°30'0 0.0
2017-Sep-04 19:01N 23°03' E 113°30'0 0.0
2017-Sep-04 18:31N 23°03' E 113°30'0 0.0
2017-Sep-04 18:01N 23°03' E 113°30'0 0.0
2017-Sep-04 17:31N 23°03' E 113°30'0 0.0
2017-Sep-04 17:00N 23°03' E 113°30'0 0.1
2017-Sep-04 16:30N 23°03' E 113°30'0 0.1
2017-Sep-04 16:00N 23°03' E 113°30'0 0.0
2017-Sep-04 15:31N 23°03' E 113°30'  
Track history (hours):
 
Tides and Currents Weather Stations Pressure Air Temp Water Temp Dewpoint Dewpoint Depression Visibility Wind Speed Wind Dir Waves Ship Positions

Ascanius

Last reported at 2017-Sep-14 15:12 UTC. Time now 2017-Nov-20 21:27 UTC.
Position N 01°15' E 103°24'.
Warning: this ship's position is months out of date.

Length 225 m; draft 12.1 m.

Type: Cargo ship. MMSI: 538002012.

Date/timePositionNaut miles runAvg speedWind from/ knotsBaromVisibWave heightAir tempDewpointWater temp
2017-Sep-14 15:12N 01°15' E 103°24'513.1
2017-Sep-14 14:52N 01°13' E 103°28'512.0
2017-Sep-14 14:27N 01°12' E 103°33'511.3
2017-Sep-14 14:01N 01°11' E 103°38'610.5
2017-Sep-14 13:27N 01°09' E 103°43'4 8.6
2017-Sep-14 12:57N 01°10' E 103°48'5 8.7
2017-Sep-14 12:21N 01°12' E 103°52'3 9.0
2017-Sep-14 12:01N 01°14' E 103°55'5 0.3
2017-Sep-13 22:05N 01°17' E 103°58'0 0.4
2017-Sep-13 21:35N 01°17' E 103°58'0 3.0
2017-Sep-13 21:27N 01°17' E 103°59'1 2.4
2017-Sep-13 20:56N 01°16' E 103°59'  
2017-Sep-07 17:23N 22°23' E 113°47'912.0
2017-Sep-07 16:39N 22°31' E 113°44'211.2
2017-Sep-07 16:26N 22°34' E 113°43'511.3
2017-Sep-07 16:00N 22°38' E 113°42'510.6
2017-Sep-07 15:30N 22°43' E 113°40'510.2
2017-Sep-07 15:00N 22°48' E 113°37'5 9.6
2017-Sep-07 14:30N 22°52' E 113°34'4 8.5
2017-Sep-07 14:00N 22°56' E 113°33'5 9.9
2017-Sep-07 13:30N 23°00' E 113°31'3 5.9
2017-Sep-07 12:59N 23°03' E 113°30'0 0.1
2017-Sep-07 12:31N 23°03' E 113°30'0 0.1
2017-Sep-07 12:00N 23°03' E 113°30'0 0.0
2017-Sep-07 11:30N 23°03' E 113°30'0 0.0
2017-Sep-07 11:00N 23°03' E 113°30'0 0.0
2017-Sep-07 10:31N 23°03' E 113°30'0 0.0
2017-Sep-07 09:57N 23°03' E 113°30'0 0.0
2017-Sep-07 09:31N 23°03' E 113°30'0 0.0
2017-Sep-07 09:00N 23°03' E 113°30'0 0.0
2017-Sep-07 08:31N 23°03' E 113°30'0 0.0
2017-Sep-07 08:01N 23°03' E 113°30'0 0.0
2017-Sep-07 07:31N 23°03' E 113°30'0 0.0
2017-Sep-07 07:00N 23°03' E 113°30'0 0.0
2017-Sep-07 06:30N 23°03' E 113°30'0 0.0
2017-Sep-07 06:01N 23°03' E 113°30'0 0.0
2017-Sep-07 05:31N 23°03' E 113°30'0 0.0
2017-Sep-07 05:01N 23°03' E 113°30'0 0.0
2017-Sep-07 04:31N 23°03' E 113°30'0 0.1
2017-Sep-07 04:01N 23°03' E 113°30'0 0.1
2017-Sep-07 03:30N 23°03' E 113°30'0 0.0
2017-Sep-07 03:00N 23°03' E 113°30'0 0.0
2017-Sep-07 02:31N 23°03' E 113°30'0 0.0
2017-Sep-07 02:01N 23°03' E 113°30'0 0.0
2017-Sep-07 01:30N 23°03' E 113°30'0 0.0
2017-Sep-07 01:00N 23°03' E 113°30'0 0.0
2017-Sep-07 00:31N 23°03' E 113°30'0 0.0
2017-Sep-07 00:01N 23°03' E 113°30'0 0.0
2017-Sep-06 23:30N 23°03' E 113°30'0 0.0
2017-Sep-06 23:00N 23°03' E 113°30'0 0.0
2017-Sep-06 22:30N 23°03' E 113°30'0 0.0
2017-Sep-06 22:00N 23°03' E 113°30'0 0.0
2017-Sep-06 21:31N 23°03' E 113°30'0 0.1
2017-Sep-06 21:01N 23°03' E 113°30'0 0.1
2017-Sep-06 20:31N 23°03' E 113°30'0 0.0
2017-Sep-06 20:01N 23°03' E 113°30'0 0.0
2017-Sep-06 19:31N 23°03' E 113°30'0 0.0
2017-Sep-06 19:01N 23°03' E 113°30'0 0.0
2017-Sep-06 18:31N 23°03' E 113°30'0 0.0
2017-Sep-06 18:01N 23°03' E 113°30'0 0.0
2017-Sep-06 17:31N 23°03' E 113°30'0 0.0
2017-Sep-06 17:01N 23°03' E 113°30'0 0.1
2017-Sep-06 16:30N 23°03' E 113°30'0 0.1
2017-Sep-06 16:01N 23°03' E 113°30'0 0.1
2017-Sep-06 15:30N 23°03' E 113°30'0 0.1
2017-Sep-06 15:00N 23°03' E 113°30'0 0.0
2017-Sep-06 14:30N 23°03' E 113°30'0 0.0
2017-Sep-06 14:01N 23°03' E 113°30'0 0.0
2017-Sep-06 13:30N 23°03' E 113°30'0 0.0
2017-Sep-06 13:01N 23°03' E 113°30'0 0.0
2017-Sep-06 12:30N 23°03' E 113°30'0 0.0
2017-Sep-06 12:00N 23°03' E 113°30'0 0.0
2017-Sep-06 11:31N 23°03' E 113°30'0 0.0
2017-Sep-06 11:01N 23°03' E 113°30'0 0.0
2017-Sep-06 10:31N 23°03' E 113°30'0 0.0
2017-Sep-06 10:01N 23°03' E 113°30'0 0.0
2017-Sep-06 09:30N 23°03' E 113°30'0 0.0
2017-Sep-06 09:01N 23°03' E 113°30'0 0.0
2017-Sep-06 08:30N 23°03' E 113°30'0 0.0
2017-Sep-06 08:00N 23°03' E 113°30'0 0.0
2017-Sep-06 07:30N 23°03' E 113°30'0 0.0
2017-Sep-06 07:01N 23°03' E 113°30'0 0.0
2017-Sep-06 06:30N 23°03' E 113°30'0 0.0
2017-Sep-06 06:00N 23°03' E 113°30'0 0.0
2017-Sep-06 05:31N 23°03' E 113°30'0 0.0
2017-Sep-06 05:00N 23°03' E 113°30'0 0.0
2017-Sep-06 04:30N 23°03' E 113°30'0 0.0
2017-Sep-06 04:00N 23°03' E 113°30'0 0.0
2017-Sep-06 03:30N 23°03' E 113°30'0 0.1
2017-Sep-06 03:00N 23°03' E 113°30'0 0.1
2017-Sep-06 02:31N 23°03' E 113°30'0 0.1
2017-Sep-06 02:01N 23°03' E 113°30'0 0.0
2017-Sep-06 01:30N 23°03' E 113°30'0 0.0
2017-Sep-06 01:01N 23°03' E 113°30'0 0.1
2017-Sep-06 00:30N 23°03' E 113°30'0 0.0
2017-Sep-06 00:00N 23°03' E 113°30'0 0.0
2017-Sep-05 23:31N 23°03' E 113°30'0 0.0
2017-Sep-05 23:00N 23°03' E 113°30'0 0.0
2017-Sep-05 22:30N 23°03' E 113°30'0 0.0
2017-Sep-05 22:00N 23°03' E 113°30'0 0.0
2017-Sep-05 21:30N 23°03' E 113°30'0 0.1
2017-Sep-05 21:00N 23°03' E 113°30'0 0.0
2017-Sep-05 20:31N 23°03' E 113°30'0 0.1
2017-Sep-05 20:01N 23°03' E 113°30'0 0.0
2017-Sep-05 19:30N 23°03' E 113°30'0 0.0
2017-Sep-05 19:01N 23°03' E 113°30'0 0.0
2017-Sep-05 18:30N 23°03' E 113°30'0 0.0
2017-Sep-05 18:00N 23°03' E 113°30'0 0.0
2017-Sep-05 17:30N 23°03' E 113°30'0 0.1
2017-Sep-05 17:01N 23°03' E 113°30'0 0.1
2017-Sep-05 16:31N 23°03' E 113°30'0 0.0
2017-Sep-05 16:01N 23°03' E 113°30'0 0.0
2017-Sep-05 15:31N 23°03' E 113°30'0 0.0
2017-Sep-05 15:00N 23°03' E 113°30'0 0.0
2017-Sep-05 14:31N 23°03' E 113°30'0 0.1
2017-Sep-05 14:01N 23°03' E 113°30'0 0.1
2017-Sep-05 13:30N 23°03' E 113°30'0 0.0
2017-Sep-05 13:01N 23°03' E 113°30'0 0.0
2017-Sep-05 12:30N 23°03' E 113°30'0 0.0
2017-Sep-05 12:00N 23°03' E 113°30'0 0.1
2017-Sep-05 11:30N 23°03' E 113°30'0 0.0
2017-Sep-05 11:00N 23°03' E 113°30'0 0.1
2017-Sep-05 10:30N 23°03' E 113°30'0 0.0
2017-Sep-05 10:01N 23°03' E 113°30'0 0.1
2017-Sep-05 09:30N 23°03' E 113°30'0 0.1
2017-Sep-05 09:00N 23°03' E 113°30'0 0.0
2017-Sep-05 08:30N 23°03' E 113°30'0 0.0
2017-Sep-05 08:01N 23°03' E 113°30'0 0.0
2017-Sep-05 07:30N 23°03' E 113°30'0 0.0
2017-Sep-05 07:01N 23°03' E 113°30'0 0.0
2017-Sep-05 06:31N 23°03' E 113°30'0 0.0
2017-Sep-05 06:01N 23°03' E 113°30'0 0.0
2017-Sep-05 05:31N 23°03' E 113°30'0 0.0
2017-Sep-05 05:00N 23°03' E 113°30'0 0.0
2017-Sep-05 04:30N 23°03' E 113°30'0 0.0
2017-Sep-05 04:01N 23°03' E 113°30'0 0.0
2017-Sep-05 03:31N 23°03' E 113°30'0 0.0
2017-Sep-05 03:01N 23°03' E 113°30'0 0.0
2017-Sep-05 02:30N 23°03' E 113°30'0 0.0
2017-Sep-05 02:00N 23°03' E 113°30'0 0.0
2017-Sep-05 01:30N 23°03' E 113°30'0 0.0
2017-Sep-05 01:00N 23°03' E 113°30'0 0.0
2017-Sep-05 00:30N 23°03' E 113°30'0 0.0
2017-Sep-05 00:01N 23°03' E 113°30'0 0.0
2017-Sep-04 23:31N 23°03' E 113°30'0 0.0
2017-Sep-04 23:00N 23°03' E 113°30'0 0.0
2017-Sep-04 22:30N 23°03' E 113°30'0 0.0
2017-Sep-04 22:01N 23°03' E 113°30'0 0.0
2017-Sep-04 21:31N 23°03' E 113°30'0 0.0
2017-Sep-04 21:01N 23°03' E 113°30'0 0.0
2017-Sep-04 20:31N 23°03' E 113°30'0 0.0
2017-Sep-04 20:01N 23°03' E 113°30'0 0.0
2017-Sep-04 19:31N 23°03' E 113°30'0 0.0
2017-Sep-04 19:01N 23°03' E 113°30'0 0.0
2017-Sep-04 18:31N 23°03' E 113°30'0 0.0
2017-Sep-04 18:01N 23°03' E 113°30'0 0.0
2017-Sep-04 17:31N 23°03' E 113°30'0 0.0
2017-Sep-04 17:00N 23°03' E 113°30'0 0.1
2017-Sep-04 16:30N 23°03' E 113°30'0 0.1
2017-Sep-04 16:00N 23°03' E 113°30'0 0.0
2017-Sep-04 15:31N 23°03' E 113°30'  

Dump ship's entire track history